createdAt,value
2022-09-21T00:00:08.541Z,101465.06
2022-09-21T00:02:37.476Z,101465.81
2022-09-21T00:05:06.989Z,101470.16
2022-09-21T00:07:37.309Z,101476.25
2022-09-21T00:10:06.728Z,101475.34
2022-09-21T00:12:37.452Z,101474.50
2022-09-21T00:15:07.538Z,101480.59
2022-09-21T00:17:36.888Z,101473.53
2022-09-21T00:20:06.701Z,101484.84
2022-09-21T00:22:38.220Z,101471.75
2022-09-21T00:25:08.404Z,101477.06
2022-09-21T00:27:37.638Z,101471.88
2022-09-21T00:30:08.115Z,101471.00
2022-09-21T00:32:39.448Z,101476.19
2022-09-21T00:35:09.704Z,101489.41
2022-09-21T00:37:40.003Z,101486.97
2022-09-21T00:40:14.568Z,101486.28
2022-09-21T00:42:43.516Z,101491.63
2022-09-21T00:45:21.277Z,101485.59
2022-09-21T00:47:52.927Z,101482.16
2022-09-21T00:50:25.387Z,101485.78
2022-09-21T00:52:59.033Z,101477.97
2022-09-21T00:55:32.229Z,101480.66
2022-09-21T00:58:06.033Z,101491.25
2022-09-21T01:00:35.100Z,101487.78
2022-09-21T01:03:04.817Z,101486.03
2022-09-21T01:05:33.703Z,101489.53
2022-09-21T01:08:07.422Z,101486.03
2022-09-21T01:10:48.317Z,101481.59
2022-09-21T01:13:29.752Z,101489.44
2022-09-21T01:16:08.725Z,101488.59
2022-09-21T01:18:45.262Z,101497.44
2022-09-21T01:21:22.656Z,101490.44
2022-09-21T01:24:37.566Z,101491.38
2022-09-21T01:27:45.740Z,101494.88
2022-09-21T01:30:19.198Z,101493.09
2022-09-21T01:32:54.135Z,101498.38
2022-09-21T01:35:28.961Z,101498.31
2022-09-21T01:38:02.766Z,101474.44
2022-09-21T01:40:36.127Z,101498.22
2022-09-21T01:43:08.235Z,101433.91
2022-09-21T01:45:42.229Z,101502.66
2022-09-21T01:48:12.279Z,101503.63
2022-09-21T01:50:46.648Z,101502.88
2022-09-21T01:53:23.959Z,101506.44
2022-09-21T01:55:56.520Z,101504.72
2022-09-21T01:58:33.303Z,101506.47
2022-09-21T02:01:04.381Z,101512.66
2022-09-21T02:03:38.139Z,101515.34
2022-09-21T02:06:09.112Z,101518.88
2022-09-21T02:08:39.296Z,101518.03
2022-09-21T02:11:09.312Z,101517.19
2022-09-21T02:13:41.607Z,101515.44
2022-09-21T02:16:33.454Z,101517.22
2022-09-21T02:19:12.282Z,101514.56
2022-09-21T02:21:53.203Z,101511.09
2022-09-21T02:24:30.025Z,101515.50
2022-09-21T02:27:05.312Z,101520.75
2022-09-21T02:29:50.341Z,101479.34
2022-09-21T02:32:29.320Z,101521.59
2022-09-21T02:35:09.290Z,101518.03
2022-09-21T02:37:43.981Z,101515.38
2022-09-21T02:40:22.488Z,101511.84
2022-09-21T02:42:57.890Z,101514.50
2022-09-21T02:45:33.083Z,101516.28
2022-09-21T02:48:09.343Z,101519.81
2022-09-21T02:50:43.112Z,101530.38
2022-09-21T02:53:16.925Z,101523.34
2022-09-21T02:55:52.035Z,101530.41
2022-09-21T02:58:27.882Z,101530.44
2022-09-21T03:00:59.345Z,101531.34
2022-09-21T03:03:30.176Z,101529.59
2022-09-21T03:05:59.120Z,101539.25
2022-09-21T03:08:28.015Z,101527.88
2022-09-21T03:10:57.774Z,101531.41
2022-09-21T03:13:27.031Z,101537.59
2022-09-21T03:16:02.262Z,101536.69
2022-09-21T03:18:33.250Z,101545.50
2022-09-21T03:21:02.644Z,101536.72
2022-09-21T03:23:31.733Z,101534.94
2022-09-21T03:26:02.641Z,101539.38
2022-09-21T03:28:31.549Z,101539.38
2022-09-21T03:31:00.420Z,101537.63
2022-09-21T03:33:29.557Z,101544.69
2022-09-21T03:36:00.097Z,101541.16
2022-09-21T03:38:28.949Z,101542.91
2022-09-21T03:40:58.030Z,101548.19
2022-09-21T03:43:28.980Z,101543.78
2022-09-21T03:45:58.029Z,101551.72
2022-09-21T03:48:27.103Z,101545.53
2022-09-21T03:50:56.137Z,101549.94
2022-09-21T03:53:28.860Z,101547.31
2022-09-21T03:55:58.922Z,101555.22
2022-09-21T03:58:27.878Z,101558.69
2022-09-21T04:01:01.886Z,101546.38
2022-09-21T04:03:31.038Z,101556.91
2022-09-21T04:06:00.025Z,101556.03
2022-09-21T04:08:33.035Z,101548.97
2022-09-21T04:11:02.495Z,101552.53
2022-09-21T04:13:31.367Z,101555.16
2022-09-21T04:16:00.200Z,101567.44
2022-09-21T04:18:29.065Z,101561.28
2022-09-21T04:20:57.873Z,101559.53
2022-09-21T04:23:26.859Z,101569.19
2022-09-21T04:25:58.084Z,101564.81
2022-09-21T04:28:29.889Z,101562.19
2022-09-21T04:30:58.945Z,101571.00
2022-09-21T04:33:27.837Z,101571.88
2022-09-21T04:35:57.597Z,101573.66
2022-09-21T04:38:30.739Z,101570.16
2022-09-21T04:41:03.459Z,101572.78
2022-09-21T04:43:32.394Z,101580.72
2022-09-21T04:46:06.028Z,101586.00
2022-09-21T04:48:34.980Z,101583.34
2022-09-21T04:51:04.219Z,101589.50
2022-09-21T04:53:33.149Z,101585.09
2022-09-21T04:56:04.653Z,101582.47
2022-09-21T04:58:34.087Z,101586.81
2022-09-21T05:01:04.533Z,101592.13
2022-09-21T05:03:35.850Z,101586.84
2022-09-21T05:06:05.219Z,101581.56
2022-09-21T05:08:51.831Z,101579.75
2022-09-21T05:11:22.937Z,101586.78
2022-09-21T05:13:52.151Z,101584.09
2022-09-21T05:16:21.448Z,101584.06
2022-09-21T05:18:54.032Z,101585.78
2022-09-21T05:21:23.249Z,101590.19
2022-09-21T05:23:52.184Z,101591.00
2022-09-21T05:26:28.336Z,101592.78
2022-09-21T05:28:57.912Z,101609.47
2022-09-21T05:31:40.138Z,101605.13
2022-09-21T05:34:21.493Z,101607.84
2022-09-21T05:36:59.039Z,101612.28
2022-09-21T05:39:28.599Z,101605.31
2022-09-21T05:41:59.427Z,101614.16
2022-09-21T05:44:29.054Z,101615.97
2022-09-21T05:47:05.254Z,101622.16
2022-09-21T05:49:48.027Z,101627.41
2022-09-21T05:52:27.048Z,101627.47
2022-09-21T05:55:08.406Z,101621.28
2022-09-21T05:57:47.995Z,101624.78
2022-09-21T06:00:21.220Z,101627.41
2022-09-21T06:03:11.536Z,101626.47
2022-09-21T06:05:44.393Z,101629.06
2022-09-21T06:08:13.348Z,101630.78
2022-09-21T06:10:42.212Z,101624.59
2022-09-21T06:13:12.524Z,101621.94
2022-09-21T06:15:44.717Z,101625.50
2022-09-21T06:18:17.720Z,101623.75
2022-09-21T06:20:47.106Z,101626.41
2022-09-21T06:23:16.821Z,101628.22
2022-09-21T06:25:45.667Z,101624.72
2022-09-21T06:28:16.099Z,101632.63
2022-09-21T06:30:45.242Z,101634.38
2022-09-21T06:33:20.285Z,101634.41
2022-09-21T06:35:54.861Z,101635.28
2022-09-21T06:38:26.065Z,101631.75
2022-09-21T06:40:55.627Z,101637.03
2022-09-21T06:43:26.072Z,101632.69
2022-09-21T06:45:56.337Z,101633.66
2022-09-21T06:48:26.109Z,101631.94
2022-09-21T06:50:59.805Z,101626.69
2022-09-21T06:53:30.040Z,101634.63
2022-09-21T06:56:03.120Z,101640.81
2022-09-21T06:58:34.744Z,101636.41
2022-09-21T07:01:08.446Z,101640.81
2022-09-21T07:03:38.788Z,101652.25
2022-09-21T07:06:11.870Z,101649.47
2022-09-21T07:11:34.739Z,101645.59
2022-09-21T07:14:05.502Z,101655.16
2022-09-21T07:16:35.181Z,101654.22
2022-09-21T07:19:11.121Z,101663.03
2022-09-21T07:21:40.782Z,101663.06
2022-09-21T07:24:12.370Z,101664.72
2022-09-21T07:26:41.966Z,101666.47
2022-09-21T07:29:12.215Z,101667.34
2022-09-21T07:31:44.247Z,101667.19
2022-09-21T07:34:13.190Z,101666.16
2022-09-21T07:36:44.361Z,101675.75
2022-09-21T07:39:14.758Z,101672.19
2022-09-21T07:41:46.338Z,101674.94
2022-09-21T07:44:17.033Z,101671.53
2022-09-21T07:46:48.246Z,101675.88
2022-09-21T07:49:17.420Z,101671.38
2022-09-21T07:51:46.276Z,101675.81
2022-09-21T07:54:15.955Z,101676.59
2022-09-21T07:57:04.937Z,101677.19
2022-09-21T07:59:34.317Z,101681.50
2022-09-21T08:02:03.239Z,101677.78
2022-09-21T08:04:32.339Z,101680.94
2022-09-21T08:07:01.202Z,101678.75
2022-09-21T08:09:30.070Z,101685.59
2022-09-21T08:12:01.558Z,101689.00
2022-09-21T08:14:30.422Z,101682.69
2022-09-21T08:17:01.856Z,101686.91
2022-09-21T08:19:30.771Z,101687.50
2022-09-21T08:21:59.944Z,101688.19
2022-09-21T08:24:31.462Z,101692.50
2022-09-21T08:27:01.673Z,101696.97
2022-09-21T08:29:30.617Z,101696.78
2022-09-21T08:32:02.308Z,101694.66
2022-09-21T08:34:32.945Z,101690.28
2022-09-21T08:37:03.916Z,101700.88
2022-09-21T08:39:34.802Z,101700.13
2022-09-21T08:42:16.228Z,101697.44
2022-09-21T08:44:51.521Z,101707.19
2022-09-21T08:47:36.818Z,101701.59
2022-09-21T08:50:08.353Z,101706.63
2022-09-21T08:52:39.688Z,101705.28
2022-09-21T08:55:19.227Z,101710.28
2022-09-21T08:57:48.197Z,101702.47
2022-09-21T09:00:19.286Z,101708.53
2022-09-21T09:03:17.929Z,101714.09
2022-09-21T09:05:53.884Z,101701.56
2022-09-21T09:08:57.665Z,101716.44
2022-09-21T09:11:45.573Z,101715.88
2022-09-21T09:14:36.942Z,101711.88
2022-09-21T09:17:25.721Z,101710.44
2022-09-21T09:20:02.555Z,101704.19
2022-09-21T09:22:36.050Z,101710.09
2022-09-21T09:25:08.380Z,101710.53
2022-09-21T09:27:40.481Z,101706.09
2022-09-21T09:30:24.903Z,101703.88
2022-09-21T09:32:59.395Z,101704.97
2022-09-21T09:35:33.438Z,101704.06
2022-09-21T09:38:12.588Z,101699.31
2022-09-21T09:41:08.111Z,101693.50
2022-09-21T09:43:50.495Z,101699.44
2022-09-21T09:46:48.476Z,101698.19
2022-09-21T09:49:30.008Z,101703.72
2022-09-21T09:52:00.775Z,101696.09
2022-09-21T09:54:36.877Z,101697.88
2022-09-21T09:57:07.402Z,101697.19
2022-09-21T09:59:44.551Z,101696.09
2022-09-21T10:02:22.478Z,101700.22
2022-09-21T10:05:01.567Z,101698.78
2022-09-21T10:07:38.888Z,101696.84
2022-09-21T10:10:35.128Z,101688.56
2022-09-21T10:13:26.275Z,101696.78
2022-09-21T10:15:58.553Z,101694.25
2022-09-21T10:18:36.656Z,101692.66
2022-09-21T10:21:09.178Z,101689.38
2022-09-21T10:23:40.359Z,101697.22
2022-09-21T10:26:14.594Z,101684.16
2022-09-21T10:28:58.499Z,101688.16
2022-09-21T10:31:30.065Z,101683.44
2022-09-21T10:34:13.829Z,101686.47
2022-09-21T10:36:51.331Z,101687.13
2022-09-21T10:39:28.985Z,101679.91
2022-09-21T10:42:07.162Z,101684.13
2022-09-21T10:44:41.077Z,101682.81
2022-09-21T10:47:20.622Z,101680.94
2022-09-21T10:49:51.572Z,101677.97
2022-09-21T10:52:23.866Z,101676.56
2022-09-21T10:54:57.692Z,101673.78
2022-09-21T10:57:29.786Z,101674.53
2022-09-21T10:59:59.821Z,101660.81
2022-09-21T11:02:39.748Z,101666.69
2022-09-21T11:05:16.433Z,101659.22
2022-09-21T11:07:50.987Z,101673.84
2022-09-21T11:10:33.978Z,101674.66
2022-09-21T11:13:18.519Z,101673.09
2022-09-21T11:15:55.954Z,101567.53
2022-09-21T11:18:39.038Z,101671.47
2022-09-21T11:21:14.451Z,101665.66
2022-09-21T11:23:51.000Z,101663.13
2022-09-21T11:26:27.461Z,101668.69
2022-09-21T11:29:03.368Z,101666.78
2022-09-21T11:32:06.118Z,101675.59
2022-09-21T11:35:10.029Z,101668.34
2022-09-21T11:37:52.454Z,101668.19
2022-09-21T11:40:39.830Z,101665.25
2022-09-21T11:43:30.658Z,101671.22
2022-09-21T11:46:10.529Z,101670.16
2022-09-21T11:48:54.804Z,101662.38
2022-09-21T11:51:39.633Z,101667.97
2022-09-21T11:54:39.562Z,101665.66
2022-09-21T11:57:32.475Z,101661.81
2022-09-21T12:00:16.580Z,101660.09
2022-09-21T12:03:12.381Z,101660.31
2022-09-21T12:05:47.734Z,101655.66
2022-09-21T12:08:35.309Z,101655.41
2022-09-21T12:11:13.403Z,101652.34
2022-09-21T12:13:51.953Z,101651.81
2022-09-21T12:16:33.871Z,101651.59
2022-09-21T12:19:10.824Z,101649.22
2022-09-21T12:21:45.646Z,101626.97
2022-09-21T12:24:18.809Z,101637.63
2022-09-21T12:26:52.273Z,101637.69
2022-09-21T12:29:26.883Z,101633.94
2022-09-21T12:32:04.984Z,101477.78
2022-09-21T12:34:42.196Z,101630.66
2022-09-21T12:37:15.900Z,101640.22
2022-09-21T12:39:50.221Z,101637.28
2022-09-21T12:42:31.582Z,101639.28
2022-09-21T12:45:07.389Z,101635.75
2022-09-21T12:47:50.200Z,101625.91
2022-09-21T12:50:28.224Z,101634.50
2022-09-21T12:52:58.744Z,101637.13
2022-09-21T12:55:44.624Z,101605.03
2022-09-21T12:58:29.952Z,101628.69
2022-09-21T13:01:06.817Z,101633.50
2022-09-21T13:03:43.870Z,101638.00
2022-09-21T13:06:51.648Z,101624.81
2022-09-21T13:09:23.602Z,101624.06
2022-09-21T13:11:56.750Z,101626.88
2022-09-21T13:14:28.593Z,101619.41
2022-09-21T13:17:02.931Z,101620.19
2022-09-21T13:19:34.945Z,101614.69
2022-09-21T13:22:20.776Z,101618.91
2022-09-21T13:25:03.404Z,101614.25
2022-09-21T13:28:00.727Z,101613.66
2022-09-21T13:30:39.149Z,101608.13
2022-09-21T13:33:33.973Z,101624.88
2022-09-21T13:36:31.424Z,101613.91
2022-09-21T13:39:17.517Z,101610.41
2022-09-21T13:42:03.529Z,101615.53
2022-09-21T13:44:42.861Z,101614.53
2022-09-21T13:47:12.652Z,101617.22
2022-09-21T13:49:46.074Z,101615.69
2022-09-21T13:52:41.586Z,101613.31
2022-09-21T13:55:29.224Z,101612.44
2022-09-21T13:58:02.161Z,101606.13
2022-09-21T14:00:39.703Z,101429.00
2022-09-21T14:03:22.904Z,101601.03
2022-09-21T14:05:56.935Z,101603.34
2022-09-21T14:08:33.054Z,101601.59
2022-09-21T14:11:06.404Z,101600.25
2022-09-21T14:13:38.141Z,101605.66
2022-09-21T14:16:55.822Z,101605.06
2022-09-21T14:20:08.800Z,101603.66
2022-09-21T14:22:39.952Z,101600.03
2022-09-21T14:25:27.228Z,101592.72
2022-09-21T14:28:00.987Z,101596.31
2022-09-21T14:30:33.341Z,101592.94
2022-09-21T14:33:32.712Z,101592.56
2022-09-21T14:36:07.885Z,101592.25
2022-09-21T14:38:51.107Z,101588.84
2022-09-21T14:41:25.406Z,101589.50
2022-09-21T14:43:56.771Z,101590.78
2022-09-21T14:47:02.502Z,101584.00
2022-09-21T14:50:05.534Z,101584.66
2022-09-21T14:52:45.498Z,101594.59
2022-09-21T14:55:21.310Z,101591.47
2022-09-21T14:58:27.853Z,101583.56
2022-09-21T15:00:59.108Z,101591.00
2022-09-21T15:03:53.780Z,101589.28
2022-09-21T15:06:49.802Z,101585.09
2022-09-21T15:10:04.389Z,101581.25
2022-09-21T15:12:46.789Z,101382.06
2022-09-21T15:15:34.490Z,101573.41
2022-09-21T15:18:18.702Z,101571.75
2022-09-21T15:21:02.946Z,101578.75
2022-09-21T15:23:46.640Z,101574.63
2022-09-21T15:26:31.461Z,101571.25
2022-09-21T15:29:11.042Z,101570.78
2022-09-21T15:31:43.475Z,101573.84
2022-09-21T15:34:15.238Z,101568.06
2022-09-21T15:36:45.607Z,101553.31
2022-09-21T15:39:25.039Z,101555.03
2022-09-21T15:42:20.111Z,101561.34
2022-09-21T15:44:51.649Z,101502.72
2022-09-21T15:47:26.177Z,101559.06
2022-09-21T15:49:59.269Z,101558.59
2022-09-21T15:52:36.302Z,101562.59
2022-09-21T15:55:12.222Z,101561.97
2022-09-21T15:57:44.209Z,101563.09
2022-09-21T16:00:24.949Z,101565.94
2022-09-21T16:03:05.809Z,101555.69
2022-09-21T16:05:44.378Z,101558.59
2022-09-21T16:08:39.653Z,101559.97
2022-09-21T16:11:19.053Z,101560.19
2022-09-21T16:14:06.216Z,101555.97
2022-09-21T16:16:55.250Z,101563.38
2022-09-21T16:19:43.048Z,101560.84
2022-09-21T16:22:14.400Z,101560.16
2022-09-21T16:24:47.073Z,101560.38
2022-09-21T16:27:19.777Z,101571.38
2022-09-21T16:29:50.272Z,101576.19
2022-09-21T16:32:30.070Z,101573.81
2022-09-21T16:35:29.121Z,101570.50
2022-09-21T16:38:00.113Z,101570.50
2022-09-21T16:40:29.846Z,101571.34
2022-09-21T16:42:59.057Z,101573.78
2022-09-21T16:45:31.931Z,101576.25
2022-09-21T16:48:02.812Z,101572.66
2022-09-21T16:50:33.226Z,101573.50
2022-09-21T16:53:02.329Z,101569.97
2022-09-21T16:55:31.422Z,101577.19
2022-09-21T16:58:00.744Z,101574.56
2022-09-21T17:00:33.083Z,101572.88
2022-09-21T17:03:03.745Z,101579.19
2022-09-21T17:05:34.213Z,101582.91
2022-09-21T17:08:03.759Z,101578.59
2022-09-21T17:10:38.054Z,101583.13
2022-09-21T17:13:07.987Z,101587.75
2022-09-21T17:15:46.351Z,101586.19
2022-09-21T17:18:15.790Z,101586.34
2022-09-21T17:20:48.097Z,101587.34
2022-09-21T17:23:17.366Z,101581.31
2022-09-21T17:25:46.266Z,101578.88
2022-09-21T17:28:27.239Z,101580.75
2022-09-21T17:30:56.430Z,101583.59
2022-09-21T17:33:26.173Z,101573.06
2022-09-21T17:35:56.707Z,101577.63
2022-09-21T17:38:25.883Z,101571.53
2022-09-21T17:41:00.952Z,101570.75
2022-09-21T17:43:47.810Z,101569.09
2022-09-21T17:46:23.355Z,101574.53
2022-09-21T17:48:53.378Z,101573.75
2022-09-21T17:51:38.227Z,101580.94
2022-09-21T17:54:10.606Z,101577.41
2022-09-21T17:56:48.911Z,101584.50
2022-09-21T17:59:32.858Z,101583.63
2022-09-21T18:02:07.672Z,101584.56
2022-09-21T18:04:40.696Z,101578.44
2022-09-21T18:07:16.148Z,101580.28
2022-09-21T18:09:45.794Z,101585.59
2022-09-21T18:12:47.767Z,101590.09
2022-09-21T18:15:24.135Z,101590.25
2022-09-21T18:18:02.609Z,101589.47
2022-09-21T18:20:47.832Z,101588.69
2022-09-21T18:23:23.991Z,101582.63
2022-09-21T18:25:57.241Z,101595.13
2022-09-21T18:28:41.741Z,101587.31
2022-09-21T18:31:24.354Z,101586.50
2022-09-21T18:34:09.384Z,101592.75
2022-09-21T18:36:49.649Z,101591.94
2022-09-21T18:39:38.030Z,101585.84
2022-09-21T18:42:23.423Z,101598.25
2022-09-21T18:44:59.740Z,101593.00
2022-09-21T18:47:34.171Z,101600.09
2022-09-21T18:50:09.293Z,101516.50
2022-09-21T18:52:47.131Z,101603.69
2022-09-21T18:55:27.046Z,101595.75
2022-09-21T18:57:57.975Z,101603.69
2022-09-21T19:00:31.719Z,101594.91
2022-09-21T19:03:18.546Z,101597.53
2022-09-21T19:05:57.075Z,101602.84
2022-09-21T19:08:34.276Z,101598.44
2022-09-21T19:11:13.576Z,101601.91
2022-09-21T19:13:57.691Z,101542.94
2022-09-21T19:16:33.714Z,101598.28
2022-09-21T19:19:23.754Z,101601.78
2022-09-21T19:21:59.357Z,101593.84
2022-09-21T19:24:33.000Z,101597.41
2022-09-21T19:27:16.492Z,101585.97
2022-09-21T19:32:48.342Z,101594.03
2022-09-21T19:35:23.052Z,101590.53
2022-09-21T19:37:54.210Z,101587.91
2022-09-21T19:40:25.297Z,101591.44
2022-09-21T19:43:21.241Z,101589.66
2022-09-21T19:46:05.064Z,101584.38
2022-09-21T19:48:42.898Z,101595.88
2022-09-21T19:51:19.821Z,101594.09
2022-09-21T19:54:13.119Z,101595.88
2022-09-21T19:57:06.439Z,101594.09
2022-09-21T19:59:46.450Z,101595.00
2022-09-21T20:02:20.009Z,101587.94
2022-09-21T20:04:56.001Z,101587.94
2022-09-21T20:07:35.697Z,101585.34
2022-09-21T20:10:34.309Z,101592.38
2022-09-21T20:13:14.464Z,101586.22
2022-09-21T20:15:49.195Z,101585.34
2022-09-21T20:18:27.286Z,101586.19
2022-09-21T20:20:57.506Z,101585.31
2022-09-21T20:23:26.825Z,101588.84
2022-09-21T20:26:03.448Z,101583.53
2022-09-21T20:28:32.909Z,101584.41
2022-09-21T20:31:04.281Z,101584.41
2022-09-21T20:33:33.242Z,101580.03
2022-09-21T20:36:02.502Z,101592.38
2022-09-21T20:38:32.104Z,101591.50
2022-09-21T20:41:00.973Z,101593.22
2022-09-21T20:43:32.577Z,101600.31
2022-09-21T20:46:03.658Z,101593.22
2022-09-21T20:48:32.571Z,101594.97
2022-09-21T20:51:04.587Z,101596.72
2022-09-21T20:53:33.610Z,101596.72
2022-09-21T20:56:02.678Z,101589.63
2022-09-21T20:58:32.091Z,101587.88
2022-09-21T21:01:07.174Z,101590.53
2022-09-21T21:03:36.244Z,101590.53
2022-09-21T21:06:14.005Z,101595.78
2022-09-21T21:08:43.267Z,101594.03
2022-09-21T21:11:12.376Z,101594.03
2022-09-21T21:13:41.283Z,101583.44
2022-09-21T21:16:12.567Z,101585.19
2022-09-21T21:18:42.013Z,101575.50
2022-09-21T21:21:11.150Z,101586.09
2022-09-21T21:23:53.902Z,101575.50
2022-09-21T21:26:33.561Z,101588.72
2022-09-21T21:29:11.928Z,101588.72
2022-09-21T21:31:42.296Z,101586.09
2022-09-21T21:34:11.160Z,101594.03
2022-09-21T21:36:39.955Z,101594.03
2022-09-21T21:39:09.108Z,101594.91
2022-09-21T21:41:37.875Z,101594.91
2022-09-21T21:44:06.779Z,101596.66
2022-09-21T21:46:35.667Z,101591.34
2022-09-21T21:49:06.076Z,101587.81
2022-09-21T21:51:35.001Z,101594.88
2022-09-21T21:54:03.864Z,101593.94
2022-09-21T21:56:32.809Z,101574.53
2022-09-21T21:59:01.659Z,101582.47
2022-09-21T22:01:31.252Z,101584.25
2022-09-21T22:04:01.836Z,101584.25
2022-09-21T22:06:34.756Z,101571.03
2022-09-21T22:09:07.047Z,101571.91
2022-09-21T22:11:37.359Z,101568.38
2022-09-21T22:14:07.373Z,101569.28
2022-09-21T22:16:37.856Z,101562.22
2022-09-21T22:19:08.405Z,101564.03
2022-09-21T22:21:42.353Z,101559.63
2022-09-21T22:24:12.066Z,101491.84
2022-09-21T22:26:43.133Z,101568.44
2022-09-21T22:29:14.298Z,101564.03
2022-09-21T22:31:44.944Z,101559.63
2022-09-21T22:34:14.953Z,101565.78
2022-09-21T22:36:45.237Z,101574.66
2022-09-21T22:39:14.527Z,101566.72
2022-09-21T22:41:44.248Z,101573.75
2022-09-21T22:44:13.116Z,101581.69
2022-09-21T22:46:42.291Z,101569.34
2022-09-21T22:49:11.167Z,101577.28
2022-09-21T22:51:40.116Z,101576.41
2022-09-21T22:54:10.348Z,101571.16
2022-09-21T22:56:39.112Z,101561.44
2022-09-21T22:59:08.477Z,101566.72
2022-09-21T23:01:39.300Z,101566.75
2022-09-21T23:04:10.569Z,101562.34
2022-09-21T23:06:41.770Z,101561.50
2022-09-21T23:09:15.686Z,101560.63
2022-09-21T23:11:48.109Z,101570.31
2022-09-21T23:14:18.196Z,101569.47
2022-09-21T23:16:47.624Z,101566.84
2022-09-21T23:19:16.583Z,101562.41
2022-09-21T23:21:49.599Z,101561.53
2022-09-21T23:24:20.888Z,101558.00
2022-09-21T23:26:51.804Z,101565.06
2022-09-21T23:29:21.017Z,101565.06
2022-09-21T23:31:49.999Z,101564.16
2022-09-21T23:34:18.883Z,101558.03
2022-09-21T23:36:47.799Z,101562.44
2022-09-21T23:39:18.803Z,101560.69
2022-09-21T23:41:49.071Z,101557.13
2022-09-21T23:44:17.906Z,101554.50
2022-09-21T23:46:46.817Z,101549.22
2022-09-21T23:49:15.769Z,101548.28
2022-09-21T23:51:45.716Z,101551.84
2022-09-21T23:54:15.227Z,101554.47
2022-09-21T23:56:44.393Z,101551.81
2022-09-21T23:59:14.538Z,101554.47
